VISIB

Not for real navigation. The accuracy of this data is not assured See disclaimer for more information



ICAO NAME COUNTRY WIND Kt GUST Kt VIS m TEMP/DEW C BARO METAR
SEMC 3 0 100 19/19 30.21 SEMC 271300Z 12003KT 0100 FG BKN001 SCT100 19/19 Q1023
YSCB Canberra Australia 0 0 150 3/3 30.00 YSCB 271330Z AUTO 00000KT 0150 // SCT001 03/03 Q1016
YWLM 0 0 200 10/10 30.03 YWLM 271300Z AUTO 00000KT 0200 // ////// 10/10 Q1017
UHSS Yuzhno-Sakhalinsk Russia 3 0 200 5/5 29.85 UHSS 271300Z 19003KT 0200 R19/0550N FG VV002 05/05 Q1011 R19/CLRD70 NOSIG RMK QBB060 MT OBSC QFE757/
SCCH Chillan Chile 3 0 200 1/1 30.21 SCCH 271300Z 06003KT 0200 FG VV000 01/01 Q1023

Show more